sensor_id;sensor_type;location;lat;lon;timestamp;P1;durP1;ratioP1;P2;durP2;ratioP2
5939;SDS011;2995;-31.998;115.906;2023-07-08T00:00:55;8.63;;;6.20;;
5939;SDS011;2995;-31.998;115.906;2023-07-08T00:03:26;10.60;;;6.03;;
5939;SDS011;2995;-31.998;115.906;2023-07-08T00:05:58;14.73;;;7.33;;
5939;SDS011;2995;-31.998;115.906;2023-07-08T00:08:29;9.30;;;6.80;;
5939;SDS011;2995;-31.998;115.906;2023-07-08T00:11:00;8.93;;;6.07;;
5939;SDS011;2995;-31.998;115.906;2023-07-08T00:13:36;11.70;;;7.57;;
5939;SDS011;2995;-31.998;115.906;2023-07-08T00:16:11;11.17;;;8.13;;
5939;SDS011;2995;-31.998;115.906;2023-07-08T00:18:43;11.47;;;9.73;;
5939;SDS011;2995;-31.998;115.906;2023-07-08T00:21:17;15.10;;;9.70;;
5939;SDS011;2995;-31.998;115.906;2023-07-08T00:23:48;11.80;;;9.37;;
5939;SDS011;2995;-31.998;115.906;2023-07-08T00:26:20;14.43;;;10.50;;
5939;SDS011;2995;-31.998;115.906;2023-07-08T00:28:54;13.90;;;11.20;;
5939;SDS011;2995;-31.998;115.906;2023-07-08T00:31:27;13.10;;;10.10;;
5939;SDS011;2995;-31.998;115.906;2023-07-08T00:33:58;19.13;;;10.80;;
5939;SDS011;2995;-31.998;115.906;2023-07-08T00:36:30;17.57;;;9.83;;
5939;SDS011;2995;-31.998;115.906;2023-07-08T00:39:01;13.47;;;9.63;;
5939;SDS011;2995;-31.998;115.906;2023-07-08T00:41:37;17.67;;;9.67;;
5939;SDS011;2995;-31.998;115.906;2023-07-08T00:44:10;14.50;;;9.40;;
5939;SDS011;2995;-31.998;115.906;2023-07-08T00:46:58;11.07;;;7.77;;
5939;SDS011;2995;-31.998;115.906;2023-07-08T00:49:35;13.10;;;6.73;;
5939;SDS011;2995;-31.998;115.906;2023-07-08T00:55:00;16.33;;;7.80;;
5939;SDS011;2995;-31.998;115.906;2023-07-08T00:57:36;14.40;;;7.20;;
5939;SDS011;2995;-31.998;115.906;2023-07-08T01:00:12;11.50;;;6.80;;
5939;SDS011;2995;-31.998;115.906;2023-07-08T01:02:47;10.50;;;7.23;;
5939;SDS011;2995;-31.998;115.906;2023-07-08T01:05:22;8.87;;;6.70;;
5939;SDS011;2995;-31.998;115.906;2023-07-08T01:07:57;10.67;;;6.90;;
5939;SDS011;2995;-31.998;115.906;2023-07-08T01:10:32;12.70;;;7.00;;
5939;SDS011;2995;-31.998;115.906;2023-07-08T01:13:07;6.80;;;6.10;;
5939;SDS011;2995;-31.998;115.906;2023-07-08T01:15:41;9.13;;;5.43;;
5939;SDS011;2995;-31.998;115.906;2023-07-08T01:18:17;8.40;;;5.40;;
5939;SDS011;2995;-31.998;115.906;2023-07-08T01:20:51;11.00;;;5.53;;
5939;SDS011;2995;-31.998;115.906;2023-07-08T01:23:25;4.90;;;4.40;;
5939;SDS011;2995;-31.998;115.906;2023-07-08T01:25:57;5.53;;;4.07;;
5939;SDS011;2995;-31.998;115.906;2023-07-08T01:28:30;4.70;;;4.17;;
5939;SDS011;2995;-31.998;115.906;2023-07-08T01:31:02;10.03;;;4.93;;
5939;SDS011;2995;-31.998;115.906;2023-07-08T01:33:33;9.53;;;4.67;;
5939;SDS011;2995;-31.998;115.906;2023-07-08T01:36:05;9.00;;;4.73;;
5939;SDS011;2995;-31.998;115.906;2023-07-08T01:38:39;6.87;;;4.63;;
5939;SDS011;2995;-31.998;115.906;2023-07-08T01:41:12;6.67;;;4.40;;
5939;SDS011;2995;-31.998;115.906;2023-07-08T01:43:44;7.97;;;3.93;;
5939;SDS011;2995;-31.998;115.906;2023-07-08T01:46:17;6.33;;;4.03;;
5939;SDS011;2995;-31.998;115.906;2023-07-08T01:48:52;8.00;;;3.83;;
5939;SDS011;2995;-31.998;115.906;2023-07-08T01:51:25;6.67;;;3.83;;
5939;SDS011;2995;-31.998;115.906;2023-07-08T01:53:59;6.03;;;3.70;;
5939;SDS011;2995;-31.998;115.906;2023-07-08T01:56:30;7.80;;;2.97;;
5939;SDS011;2995;-31.998;115.906;2023-07-08T01:59:02;10.23;;;3.43;;
5939;SDS011;2995;-31.998;115.906;2023-07-08T02:01:33;5.30;;;3.13;;
5939;SDS011;2995;-31.998;115.906;2023-07-08T02:04:04;6.03;;;2.40;;
5939;SDS011;2995;-31.998;115.906;2023-07-08T02:06:35;6.20;;;2.60;;
5939;SDS011;2995;-31.998;115.906;2023-07-08T02:09:08;5.10;;;3.17;;
5939;SDS011;2995;-31.998;115.906;2023-07-08T02:11:40;8.50;;;2.53;;
5939;SDS011;2995;-31.998;115.906;2023-07-08T02:14:11;11.63;;;3.43;;
5939;SDS011;2995;-31.998;115.906;2023-07-08T02:16:42;5.30;;;2.63;;
5939;SDS011;2995;-31.998;115.906;2023-07-08T02:19:13;5.50;;;2.70;;
5939;SDS011;2995;-31.998;115.906;2023-07-08T02:21:45;14.87;;;3.23;;
5939;SDS011;2995;-31.998;115.906;2023-07-08T02:24:20;7.03;;;3.03;;
5939;SDS011;2995;-31.998;115.906;2023-07-08T02:26:51;7.70;;;2.40;;
5939;SDS011;2995;-31.998;115.906;2023-07-08T02:29:22;7.87;;;2.20;;
5939;SDS011;2995;-31.998;115.906;2023-07-08T02:31:53;5.07;;;2.20;;
5939;SDS011;2995;-31.998;115.906;2023-07-08T02:34:25;10.87;;;3.00;;
5939;SDS011;2995;-31.998;115.906;2023-07-08T02:36:56;8.63;;;2.90;;
5939;SDS011;2995;-31.998;115.906;2023-07-08T02:39:31;7.50;;;2.70;;
5939;SDS011;2995;-31.998;115.906;2023-07-08T02:42:03;7.27;;;2.60;;
5939;SDS011;2995;-31.998;115.906;2023-07-08T02:44:34;7.67;;;2.50;;
5939;SDS011;2995;-31.998;115.906;2023-07-08T02:47:05;6.17;;;2.20;;
5939;SDS011;2995;-31.998;115.906;2023-07-08T02:49:36;7.27;;;2.70;;
5939;SDS011;2995;-31.998;115.906;2023-07-08T02:52:08;10.67;;;3.20;;
5939;SDS011;2995;-31.998;115.906;2023-07-08T02:54:41;10.13;;;2.30;;
5939;SDS011;2995;-31.998;115.906;2023-07-08T02:57:12;11.20;;;2.33;;
5939;SDS011;2995;-31.998;115.906;2023-07-08T02:59:44;14.40;;;2.83;;
5939;SDS011;2995;-31.998;115.906;2023-07-08T03:02:15;7.63;;;2.13;;
5939;SDS011;2995;-31.998;115.906;2023-07-08T03:04:46;3.63;;;2.00;;
5939;SDS011;2995;-31.998;115.906;2023-07-08T03:07:24;9.23;;;2.60;;
5939;SDS011;2995;-31.998;115.906;2023-07-08T03:09:57;6.20;;;2.37;;
5939;SDS011;2995;-31.998;115.906;2023-07-08T03:12:29;7.53;;;2.03;;
5939;SDS011;2995;-31.998;115.906;2023-07-08T03:15:00;12.93;;;2.90;;
5939;SDS011;2995;-31.998;115.906;2023-07-08T03:17:31;10.40;;;2.73;;
5939;SDS011;2995;-31.998;115.906;2023-07-08T03:20:02;10.67;;;2.80;;
5939;SDS011;2995;-31.998;115.906;2023-07-08T03:22:34;9.97;;;3.07;;
5939;SDS011;2995;-31.998;115.906;2023-07-08T03:25:09;14.97;;;3.00;;
5939;SDS011;2995;-31.998;115.906;2023-07-08T03:27:46;6.60;;;2.77;;
5939;SDS011;2995;-31.998;115.906;2023-07-08T03:30:22;11.23;;;2.67;;
5939;SDS011;2995;-31.998;115.906;2023-07-08T03:32:56;6.17;;;2.27;;
5939;SDS011;2995;-31.998;115.906;2023-07-08T03:35:30;8.03;;;2.20;;
5939;SDS011;2995;-31.998;115.906;2023-07-08T03:38:04;9.20;;;2.43;;
5939;SDS011;2995;-31.998;115.906;2023-07-08T03:40:40;8.07;;;2.60;;
5939;SDS011;2995;-31.998;115.906;2023-07-08T03:43:14;6.13;;;2.43;;
5939;SDS011;2995;-31.998;115.906;2023-07-08T03:45:48;8.70;;;2.47;;
5939;SDS011;2995;-31.998;115.906;2023-07-08T03:48:21;6.30;;;2.27;;
5939;SDS011;2995;-31.998;115.906;2023-07-08T03:50:52;9.33;;;2.00;;
5939;SDS011;2995;-31.998;115.906;2023-07-08T03:53:24;8.80;;;2.30;;
5939;SDS011;2995;-31.998;115.906;2023-07-08T03:55:57;7.70;;;2.00;;
5939;SDS011;2995;-31.998;115.906;2023-07-08T03:58:28;11.80;;;2.30;;
5939;SDS011;2995;-31.998;115.906;2023-07-08T04:00:59;7.03;;;2.20;;
5939;SDS011;2995;-31.998;115.906;2023-07-08T04:03:32;6.80;;;2.13;;
5939;SDS011;2995;-31.998;115.906;2023-07-08T04:06:03;4.53;;;1.90;;
5939;SDS011;2995;-31.998;115.906;2023-07-08T04:08:34;12.63;;;2.37;;
5939;SDS011;2995;-31.998;115.906;2023-07-08T04:11:08;9.97;;;2.80;;
5939;SDS011;2995;-31.998;115.906;2023-07-08T04:13:41;6.07;;;1.90;;
5939;SDS011;2995;-31.998;115.906;2023-07-08T04:16:14;7.53;;;2.10;;
5939;SDS011;2995;-31.998;115.906;2023-07-08T04:18:50;6.50;;;2.40;;
5939;SDS011;2995;-31.998;115.906;2023-07-08T04:21:22;7.57;;;2.23;;
5939;SDS011;2995;-31.998;115.906;2023-07-08T04:23:53;6.27;;;1.53;;
5939;SDS011;2995;-31.998;115.906;2023-07-08T04:26:27;8.90;;;3.70;;
5939;SDS011;2995;-31.998;115.906;2023-07-08T04:29:01;10.40;;;2.90;;
5939;SDS011;2995;-31.998;115.906;2023-07-08T04:31:33;11.77;;;2.50;;
5939;SDS011;2995;-31.998;115.906;2023-07-08T04:34:05;6.73;;;1.80;;
5939;SDS011;2995;-31.998;115.906;2023-07-08T04:36:37;5.40;;;1.67;;
5939;SDS011;2995;-31.998;115.906;2023-07-08T04:39:08;7.80;;;2.17;;
5939;SDS011;2995;-31.998;115.906;2023-07-08T04:41:42;13.27;;;2.47;;
5939;SDS011;2995;-31.998;115.906;2023-07-08T04:44:13;8.97;;;1.87;;
5939;SDS011;2995;-31.998;115.906;2023-07-08T04:46:44;10.83;;;2.00;;
5939;SDS011;2995;-31.998;115.906;2023-07-08T04:49:19;8.70;;;2.40;;
5939;SDS011;2995;-31.998;115.906;2023-07-08T04:51:51;8.03;;;1.93;;
5939;SDS011;2995;-31.998;115.906;2023-07-08T04:54:23;9.03;;;1.73;;
5939;SDS011;2995;-31.998;115.906;2023-07-08T04:56:58;6.17;;;2.27;;
5939;SDS011;2995;-31.998;115.906;2023-07-08T04:59:29;5.77;;;1.90;;
5939;SDS011;2995;-31.998;115.906;2023-07-08T05:02:01;7.23;;;1.90;;
5939;SDS011;2995;-31.998;115.906;2023-07-08T05:04:33;7.57;;;2.27;;
5939;SDS011;2995;-31.998;115.906;2023-07-08T05:07:05;15.53;;;2.67;;
5939;SDS011;2995;-31.998;115.906;2023-07-08T05:09:36;7.70;;;2.17;;
5939;SDS011;2995;-31.998;115.906;2023-07-08T05:12:09;4.00;;;1.67;;
5939;SDS011;2995;-31.998;115.906;2023-07-08T05:14:40;10.50;;;2.00;;
5939;SDS011;2995;-31.998;115.906;2023-07-08T05:17:12;9.43;;;2.13;;
5939;SDS011;2995;-31.998;115.906;2023-07-08T05:19:43;2.80;;;1.70;;
5939;SDS011;2995;-31.998;115.906;2023-07-08T05:22:17;3.87;;;1.70;;
5939;SDS011;2995;-31.998;115.906;2023-07-08T05:24:51;8.03;;;2.10;;
5939;SDS011;2995;-31.998;115.906;2023-07-08T05:27:25;8.57;;;1.97;;
5939;SDS011;2995;-31.998;115.906;2023-07-08T05:29:57;9.33;;;1.90;;
5939;SDS011;2995;-31.998;115.906;2023-07-08T05:32:28;5.93;;;1.80;;
5939;SDS011;2995;-31.998;115.906;2023-07-08T05:34:59;4.30;;;1.87;;
5939;SDS011;2995;-31.998;115.906;2023-07-08T05:37:30;11.53;;;2.13;;
5939;SDS011;2995;-31.998;115.906;2023-07-08T05:40:02;7.17;;;2.20;;
5939;SDS011;2995;-31.998;115.906;2023-07-08T05:42:36;3.67;;;1.80;;
5939;SDS011;2995;-31.998;115.906;2023-07-08T05:45:07;6.70;;;1.40;;
5939;SDS011;2995;-31.998;115.906;2023-07-08T05:47:38;3.77;;;1.50;;
5939;SDS011;2995;-31.998;115.906;2023-07-08T05:50:10;6.13;;;1.97;;
5939;SDS011;2995;-31.998;115.906;2023-07-08T05:52:41;8.13;;;2.80;;
5939;SDS011;2995;-31.998;115.906;2023-07-08T05:55:12;9.70;;;2.50;;
5939;SDS011;2995;-31.998;115.906;2023-07-08T05:57:46;5.50;;;1.80;;
5939;SDS011;2995;-31.998;115.906;2023-07-08T06:00:17;8.10;;;1.83;;
5939;SDS011;2995;-31.998;115.906;2023-07-08T06:02:48;6.20;;;2.23;;
5939;SDS011;2995;-31.998;115.906;2023-07-08T06:05:19;7.80;;;2.00;;
5939;SDS011;2995;-31.998;115.906;2023-07-08T06:07:51;3.73;;;2.07;;
5939;SDS011;2995;-31.998;115.906;2023-07-08T06:10:22;7.30;;;2.53;;
5939;SDS011;2995;-31.998;115.906;2023-07-08T06:12:55;4.40;;;1.70;;
5939;SDS011;2995;-31.998;115.906;2023-07-08T06:15:26;7.90;;;1.50;;
5939;SDS011;2995;-31.998;115.906;2023-07-08T06:17:58;11.73;;;2.00;;
5939;SDS011;2995;-31.998;115.906;2023-07-08T06:20:29;5.50;;;1.80;;
5939;SDS011;2995;-31.998;115.906;2023-07-08T06:23:01;11.60;;;2.07;;
5939;SDS011;2995;-31.998;115.906;2023-07-08T06:25:32;6.70;;;1.73;;
5939;SDS011;2995;-31.998;115.906;2023-07-08T06:28:05;5.97;;;1.60;;
5939;SDS011;2995;-31.998;115.906;2023-07-08T06:30:37;4.43;;;1.67;;
5939;SDS011;2995;-31.998;115.906;2023-07-08T06:33:08;6.23;;;1.77;;
5939;SDS011;2995;-31.998;115.906;2023-07-08T06:35:39;10.20;;;2.17;;
5939;SDS011;2995;-31.998;115.906;2023-07-08T06:38:11;4.03;;;1.30;;
5939;SDS011;2995;-31.998;115.906;2023-07-08T06:40:42;5.40;;;1.60;;
5939;SDS011;2995;-31.998;115.906;2023-07-08T06:43:15;3.17;;;1.20;;
5939;SDS011;2995;-31.998;115.906;2023-07-08T06:45:46;9.30;;;2.10;;
5939;SDS011;2995;-31.998;115.906;2023-07-08T06:48:18;4.50;;;1.33;;
5939;SDS011;2995;-31.998;115.906;2023-07-08T06:50:50;3.10;;;1.10;;
5939;SDS011;2995;-31.998;115.906;2023-07-08T06:53:21;3.90;;;1.30;;
5939;SDS011;2995;-31.998;115.906;2023-07-08T06:55:53;3.00;;;0.93;;
5939;SDS011;2995;-31.998;115.906;2023-07-08T06:58:26;2.43;;;1.13;;
5939;SDS011;2995;-31.998;115.906;2023-07-08T07:00:57;6.63;;;1.13;;
5939;SDS011;2995;-31.998;115.906;2023-07-08T07:03:29;3.50;;;1.20;;
5939;SDS011;2995;-31.998;115.906;2023-07-08T07:06:00;4.50;;;1.20;;
5939;SDS011;2995;-31.998;115.906;2023-07-08T07:08:31;2.93;;;1.33;;
5939;SDS011;2995;-31.998;115.906;2023-07-08T07:11:03;3.27;;;0.90;;
5939;SDS011;2995;-31.998;115.906;2023-07-08T07:13:39;1.77;;;0.80;;
5939;SDS011;2995;-31.998;115.906;2023-07-08T07:16:10;2.30;;;0.90;;
5939;SDS011;2995;-31.998;115.906;2023-07-08T07:18:41;3.67;;;1.30;;
5939;SDS011;2995;-31.998;115.906;2023-07-08T07:21:13;2.50;;;1.00;;
5939;SDS011;2995;-31.998;115.906;2023-07-08T07:23:44;3.70;;;0.90;;
5939;SDS011;2995;-31.998;115.906;2023-07-08T07:26:16;1.53;;;0.80;;
5939;SDS011;2995;-31.998;115.906;2023-07-08T07:28:55;1.47;;;0.60;;
5939;SDS011;2995;-31.998;115.906;2023-07-08T07:31:29;1.20;;;0.70;;
5939;SDS011;2995;-31.998;115.906;2023-07-08T07:34:02;2.00;;;0.90;;
5939;SDS011;2995;-31.998;115.906;2023-07-08T07:36:34;2.00;;;0.97;;
5939;SDS011;2995;-31.998;115.906;2023-07-08T07:39:07;2.43;;;0.80;;
5939;SDS011;2995;-31.998;115.906;2023-07-08T07:41:40;2.47;;;0.90;;
5939;SDS011;2995;-31.998;115.906;2023-07-08T07:44:15;2.17;;;0.80;;
5939;SDS011;2995;-31.998;115.906;2023-07-08T07:46:49;4.63;;;0.90;;
5939;SDS011;2995;-31.998;115.906;2023-07-08T07:49:21;2.10;;;0.80;;
5939;SDS011;2995;-31.998;115.906;2023-07-08T07:51:52;2.80;;;0.90;;
5939;SDS011;2995;-31.998;115.906;2023-07-08T07:54:24;1.30;;;0.80;;
5939;SDS011;2995;-31.998;115.906;2023-07-08T07:56:55;2.83;;;0.80;;
5939;SDS011;2995;-31.998;115.906;2023-07-08T07:59:29;2.07;;;0.80;;
5939;SDS011;2995;-31.998;115.906;2023-07-08T08:02:00;3.00;;;0.80;;
5939;SDS011;2995;-31.998;115.906;2023-07-08T08:04:31;1.33;;;0.70;;
5939;SDS011;2995;-31.998;115.906;2023-07-08T08:07:03;2.60;;;0.87;;
5939;SDS011;2995;-31.998;115.906;2023-07-08T08:09:38;3.40;;;0.70;;
5939;SDS011;2995;-31.998;115.906;2023-07-08T08:12:10;3.20;;;0.80;;
5939;SDS011;2995;-31.998;115.906;2023-07-08T08:14:43;5.03;;;0.90;;
5939;SDS011;2995;-31.998;115.906;2023-07-08T08:17:14;1.97;;;0.70;;
5939;SDS011;2995;-31.998;115.906;2023-07-08T08:19:46;3.53;;;0.97;;
5939;SDS011;2995;-31.998;115.906;2023-07-08T08:22:18;1.73;;;0.80;;
5939;SDS011;2995;-31.998;115.906;2023-07-08T08:24:50;4.80;;;4.30;;
5939;SDS011;2995;-31.998;115.906;2023-07-08T08:27:22;63.73;;;56.90;;
5939;SDS011;2995;-31.998;115.906;2023-07-08T08:29:55;74.33;;;60.50;;
5939;SDS011;2995;-31.998;115.906;2023-07-08T08:32:26;101.93;;;79.00;;
5939;SDS011;2995;-31.998;115.906;2023-07-08T08:34:58;47.90;;;40.27;;
5939;SDS011;2995;-31.998;115.906;2023-07-08T08:37:30;6.53;;;5.23;;
5939;SDS011;2995;-31.998;115.906;2023-07-08T08:40:02;26.80;;;24.03;;
5939;SDS011;2995;-31.998;115.906;2023-07-08T08:42:34;4.27;;;2.77;;
5939;SDS011;2995;-31.998;115.906;2023-07-08T08:45:12;7.10;;;6.17;;
5939;SDS011;2995;-31.998;115.906;2023-07-08T08:47:48;16.80;;;15.03;;
5939;SDS011;2995;-31.998;115.906;2023-07-08T08:50:25;12.47;;;11.43;;
5939;SDS011;2995;-31.998;115.906;2023-07-08T08:53:01;9.60;;;8.90;;
5939;SDS011;2995;-31.998;115.906;2023-07-08T08:55:34;14.17;;;12.93;;
5939;SDS011;2995;-31.998;115.906;2023-07-08T08:58:11;4.57;;;2.80;;
5939;SDS011;2995;-31.998;115.906;2023-07-08T09:00:53;7.53;;;6.70;;
5939;SDS011;2995;-31.998;115.906;2023-07-08T09:03:31;4.67;;;2.03;;
5939;SDS011;2995;-31.998;115.906;2023-07-08T09:06:09;3.50;;;3.20;;
5939;SDS011;2995;-31.998;115.906;2023-07-08T09:08:45;3.50;;;1.20;;
5939;SDS011;2995;-31.998;115.906;2023-07-08T09:14:15;1.60;;;1.50;;
5939;SDS011;2995;-31.998;115.906;2023-07-08T09:16:55;1.80;;;1.37;;
5939;SDS011;2995;-31.998;115.906;2023-07-08T09:19:37;2.57;;;1.57;;
5939;SDS011;2995;-31.998;115.906;2023-07-08T09:22:16;1.33;;;1.10;;
5939;SDS011;2995;-31.998;115.906;2023-07-08T09:24:53;1.63;;;1.10;;
5939;SDS011;2995;-31.998;115.906;2023-07-08T09:27:29;1.33;;;1.00;;
5939;SDS011;2995;-31.998;115.906;2023-07-08T09:30:01;3.30;;;2.30;;
5939;SDS011;2995;-31.998;115.906;2023-07-08T09:32:35;1.80;;;1.50;;
5939;SDS011;2995;-31.998;115.906;2023-07-08T09:35:09;9.07;;;2.27;;
5939;SDS011;2995;-31.998;115.906;2023-07-08T09:37:48;2.40;;;1.33;;
5939;SDS011;2995;-31.998;115.906;2023-07-08T09:40:20;3.40;;;1.40;;
5939;SDS011;2995;-31.998;115.906;2023-07-08T09:42:58;3.33;;;3.03;;
5939;SDS011;2995;-31.998;115.906;2023-07-08T09:45:39;3.10;;;2.80;;
5939;SDS011;2995;-31.998;115.906;2023-07-08T09:48:17;2.03;;;1.83;;
5939;SDS011;2995;-31.998;115.906;2023-07-08T09:50:51;4.80;;;4.40;;
5939;SDS011;2995;-31.998;115.906;2023-07-08T09:53:24;26.57;;;24.67;;
5939;SDS011;2995;-31.998;115.906;2023-07-08T09:55:56;11.67;;;10.83;;
5939;SDS011;2995;-31.998;115.906;2023-07-08T09:58:29;9.00;;;8.20;;
5939;SDS011;2995;-31.998;115.906;2023-07-08T10:01:10;7.57;;;6.83;;
5939;SDS011;2995;-31.998;115.906;2023-07-08T10:03:46;5.03;;;2.13;;
5939;SDS011;2995;-31.998;115.906;2023-07-08T10:06:18;2.80;;;2.50;;
5939;SDS011;2995;-31.998;115.906;2023-07-08T10:08:54;3.20;;;3.00;;
5939;SDS011;2995;-31.998;115.906;2023-07-08T10:11:30;4.63;;;3.70;;
5939;SDS011;2995;-31.998;115.906;2023-07-08T10:14:05;49.73;;;35.57;;
5939;SDS011;2995;-31.998;115.906;2023-07-08T10:16:48;26.93;;;21.43;;
5939;SDS011;2995;-31.998;115.906;2023-07-08T10:19:21;19.00;;;14.50;;
5939;SDS011;2995;-31.998;115.906;2023-07-08T10:21:57;9.73;;;8.77;;
5939;SDS011;2995;-31.998;115.906;2023-07-08T10:24:42;9.13;;;7.53;;
5939;SDS011;2995;-31.998;115.906;2023-07-08T10:27:24;15.63;;;14.13;;
5939;SDS011;2995;-31.998;115.906;2023-07-08T10:30:03;18.37;;;16.47;;
5939;SDS011;2995;-31.998;115.906;2023-07-08T10:33:01;30.27;;;27.03;;
5939;SDS011;2995;-31.998;115.906;2023-07-08T10:35:54;30.00;;;26.90;;
5939;SDS011;2995;-31.998;115.906;2023-07-08T10:38:37;30.07;;;24.00;;
5939;SDS011;2995;-31.998;115.906;2023-07-08T10:41:19;17.00;;;12.90;;
5939;SDS011;2995;-31.998;115.906;2023-07-08T10:44:01;12.17;;;9.23;;
5939;SDS011;2995;-31.998;115.906;2023-07-08T10:46:38;6.87;;;3.50;;
5939;SDS011;2995;-31.998;115.906;2023-07-08T10:52:27;4.23;;;2.70;;
5939;SDS011;2995;-31.998;115.906;2023-07-08T10:55:15;5.03;;;1.97;;
5939;SDS011;2995;-31.998;115.906;2023-07-08T10:58:02;2.10;;;1.90;;
5939;SDS011;2995;-31.998;115.906;2023-07-08T11:00:52;3.33;;;2.40;;
5939;SDS011;2995;-31.998;115.906;2023-07-08T11:06:37;3.50;;;2.20;;
5939;SDS011;2995;-31.998;115.906;2023-07-08T11:09:20;5.67;;;3.27;;
5939;SDS011;2995;-31.998;115.906;2023-07-08T11:11:59;3.00;;;2.60;;
5939;SDS011;2995;-31.998;115.906;2023-07-08T11:14:41;4.20;;;2.90;;
5939;SDS011;2995;-31.998;115.906;2023-07-08T11:17:19;5.90;;;3.23;;
5939;SDS011;2995;-31.998;115.906;2023-07-08T11:19:59;3.57;;;3.27;;
5939;SDS011;2995;-31.998;115.906;2023-07-08T11:22:42;4.53;;;3.20;;
5939;SDS011;2995;-31.998;115.906;2023-07-08T11:25:23;4.17;;;2.93;;
5939;SDS011;2995;-31.998;115.906;2023-07-08T11:27:56;4.20;;;3.73;;
5939;SDS011;2995;-31.998;115.906;2023-07-08T11:30:32;3.33;;;3.03;;
5939;SDS011;2995;-31.998;115.906;2023-07-08T11:33:10;4.30;;;3.33;;
5939;SDS011;2995;-31.998;115.906;2023-07-08T11:35:43;3.50;;;2.90;;
5939;SDS011;2995;-31.998;115.906;2023-07-08T11:38:16;7.47;;;3.60;;
5939;SDS011;2995;-31.998;115.906;2023-07-08T11:40:52;4.83;;;3.07;;
5939;SDS011;2995;-31.998;115.906;2023-07-08T11:43:26;4.70;;;3.67;;
5939;SDS011;2995;-31.998;115.906;2023-07-08T11:46:04;3.53;;;3.10;;
5939;SDS011;2995;-31.998;115.906;2023-07-08T11:48:38;5.50;;;3.17;;
5939;SDS011;2995;-31.998;115.906;2023-07-08T11:51:16;2.63;;;2.00;;
5939;SDS011;2995;-31.998;115.906;2023-07-08T11:53:49;4.27;;;1.80;;
5939;SDS011;2995;-31.998;115.906;2023-07-08T11:56:31;2.20;;;1.70;;
5939;SDS011;2995;-31.998;115.906;2023-07-08T11:59:19;3.90;;;1.93;;
5939;SDS011;2995;-31.998;115.906;2023-07-08T12:01:53;2.90;;;1.90;;
5939;SDS011;2995;-31.998;115.906;2023-07-08T12:04:32;2.30;;;1.67;;
5939;SDS011;2995;-31.998;115.906;2023-07-08T12:07:14;8.17;;;1.80;;
5939;SDS011;2995;-31.998;115.906;2023-07-08T12:09:47;2.43;;;2.00;;
5939;SDS011;2995;-31.998;115.906;2023-07-08T12:12:34;3.43;;;2.50;;
5939;SDS011;2995;-31.998;115.906;2023-07-08T12:15:09;3.40;;;2.80;;
5939;SDS011;2995;-31.998;115.906;2023-07-08T12:17:44;4.90;;;3.03;;
5939;SDS011;2995;-31.998;115.906;2023-07-08T12:20:17;7.73;;;2.90;;
5939;SDS011;2995;-31.998;115.906;2023-07-08T12:22:51;3.73;;;2.53;;
5939;SDS011;2995;-31.998;115.906;2023-07-08T12:25:27;4.87;;;3.10;;
5939;SDS011;2995;-31.998;115.906;2023-07-08T12:28:03;5.20;;;3.20;;
5939;SDS011;2995;-31.998;115.906;2023-07-08T12:30:35;3.07;;;2.50;;
5939;SDS011;2995;-31.998;115.906;2023-07-08T12:33:09;8.60;;;3.90;;
5939;SDS011;2995;-31.998;115.906;2023-07-08T12:35:43;8.77;;;3.07;;
5939;SDS011;2995;-31.998;115.906;2023-07-08T12:38:20;3.80;;;2.73;;
5939;SDS011;2995;-31.998;115.906;2023-07-08T12:40:56;2.70;;;2.50;;
5939;SDS011;2995;-31.998;115.906;2023-07-08T12:43:30;4.50;;;3.07;;
5939;SDS011;2995;-31.998;115.906;2023-07-08T12:46:02;2.33;;;1.93;;
5939;SDS011;2995;-31.998;115.906;2023-07-08T12:48:35;4.40;;;2.10;;
5939;SDS011;2995;-31.998;115.906;2023-07-08T12:51:09;3.20;;;1.90;;
5939;SDS011;2995;-31.998;115.906;2023-07-08T12:53:42;3.33;;;2.17;;
5939;SDS011;2995;-31.998;115.906;2023-07-08T12:56:14;3.33;;;2.13;;
5939;SDS011;2995;-31.998;115.906;2023-07-08T12:58:49;3.20;;;2.17;;
5939;SDS011;2995;-31.998;115.906;2023-07-08T13:01:22;2.43;;;2.20;;
5939;SDS011;2995;-31.998;115.906;2023-07-08T13:03:55;2.53;;;2.33;;
5939;SDS011;2995;-31.998;115.906;2023-07-08T13:06:29;4.63;;;3.50;;
5939;SDS011;2995;-31.998;115.906;2023-07-08T13:09:05;10.43;;;5.67;;
5939;SDS011;2995;-31.998;115.906;2023-07-08T13:11:47;5.63;;;4.70;;
5939;SDS011;2995;-31.998;115.906;2023-07-08T13:14:25;6.77;;;4.33;;
5939;SDS011;2995;-31.998;115.906;2023-07-08T13:16:59;5.67;;;5.03;;
5939;SDS011;2995;-31.998;115.906;2023-07-08T13:19:33;7.17;;;5.00;;
5939;SDS011;2995;-31.998;115.906;2023-07-08T13:22:08;6.70;;;5.20;;
5939;SDS011;2995;-31.998;115.906;2023-07-08T13:24:46;9.10;;;4.50;;
5939;SDS011;2995;-31.998;115.906;2023-07-08T13:27:28;3.63;;;3.33;;
5939;SDS011;2995;-31.998;115.906;2023-07-08T13:30:10;4.27;;;3.67;;
5939;SDS011;2995;-31.998;115.906;2023-07-08T13:32:48;5.20;;;4.70;;
5939;SDS011;2995;-31.998;115.906;2023-07-08T13:35:26;6.70;;;6.10;;
5939;SDS011;2995;-31.998;115.906;2023-07-08T13:38:04;7.50;;;4.90;;
5939;SDS011;2995;-31.998;115.906;2023-07-08T13:40:42;7.33;;;5.80;;
5939;SDS011;2995;-31.998;115.906;2023-07-08T13:43:15;11.70;;;6.27;;
5939;SDS011;2995;-31.998;115.906;2023-07-08T13:45:55;9.03;;;6.10;;
5939;SDS011;2995;-31.998;115.906;2023-07-08T13:48:27;7.27;;;6.10;;
5939;SDS011;2995;-31.998;115.906;2023-07-08T13:51:02;8.20;;;7.33;;
5939;SDS011;2995;-31.998;115.906;2023-07-08T13:53:42;9.10;;;7.17;;
5939;SDS011;2995;-31.998;115.906;2023-07-08T13:56:15;10.63;;;8.90;;
5939;SDS011;2995;-31.998;115.906;2023-07-08T13:59:01;9.80;;;8.77;;
5939;SDS011;2995;-31.998;115.906;2023-07-08T14:01:37;10.00;;;8.93;;
5939;SDS011;2995;-31.998;115.906;2023-07-08T14:04:10;11.73;;;8.70;;
5939;SDS011;2995;-31.998;115.906;2023-07-08T14:06:43;13.67;;;9.67;;
5939;SDS011;2995;-31.998;115.906;2023-07-08T14:09:16;9.27;;;8.37;;
5939;SDS011;2995;-31.998;115.906;2023-07-08T14:11:49;9.57;;;8.63;;
5939;SDS011;2995;-31.998;115.906;2023-07-08T14:14:20;10.77;;;9.67;;
5939;SDS011;2995;-31.998;115.906;2023-07-08T14:16:54;10.63;;;9.53;;
5939;SDS011;2995;-31.998;115.906;2023-07-08T14:19:25;14.10;;;11.07;;
5939;SDS011;2995;-31.998;115.906;2023-07-08T14:21:59;10.60;;;9.57;;
5939;SDS011;2995;-31.998;115.906;2023-07-08T14:24:31;10.03;;;8.80;;
5939;SDS011;2995;-31.998;115.906;2023-07-08T14:27:02;10.17;;;8.70;;
5939;SDS011;2995;-31.998;115.906;2023-07-08T14:29:36;11.47;;;10.30;;
5939;SDS011;2995;-31.998;115.906;2023-07-08T14:32:12;10.43;;;9.43;;
5939;SDS011;2995;-31.998;115.906;2023-07-08T14:34:44;12.30;;;9.43;;
5939;SDS011;2995;-31.998;115.906;2023-07-08T14:37:21;12.53;;;10.47;;
5939;SDS011;2995;-31.998;115.906;2023-07-08T14:39:52;12.83;;;10.00;;
5939;SDS011;2995;-31.998;115.906;2023-07-08T14:42:23;9.60;;;8.57;;
5939;SDS011;2995;-31.998;115.906;2023-07-08T14:44:55;10.13;;;9.07;;
5939;SDS011;2995;-31.998;115.906;2023-07-08T14:47:28;12.33;;;10.73;;
5939;SDS011;2995;-31.998;115.906;2023-07-08T14:49:59;13.00;;;10.07;;
5939;SDS011;2995;-31.998;115.906;2023-07-08T14:52:39;13.80;;;11.40;;
5939;SDS011;2995;-31.998;115.906;2023-07-08T14:55:10;15.27;;;12.87;;
5939;SDS011;2995;-31.998;115.906;2023-07-08T14:57:43;19.03;;;13.03;;
5939;SDS011;2995;-31.998;115.906;2023-07-08T15:00:16;14.73;;;13.00;;
5939;SDS011;2995;-31.998;115.906;2023-07-08T15:02:50;15.33;;;13.50;;
5939;SDS011;2995;-31.998;115.906;2023-07-08T15:05:22;15.07;;;13.53;;
5939;SDS011;2995;-31.998;115.906;2023-07-08T15:07:55;17.00;;;14.43;;
5939;SDS011;2995;-31.998;115.906;2023-07-08T15:10:27;13.97;;;12.57;;
5939;SDS011;2995;-31.998;115.906;2023-07-08T15:12:59;14.93;;;12.80;;
5939;SDS011;2995;-31.998;115.906;2023-07-08T15:15:33;14.83;;;13.27;;
5939;SDS011;2995;-31.998;115.906;2023-07-08T15:18:09;15.57;;;14.00;;
5939;SDS011;2995;-31.998;115.906;2023-07-08T15:20:42;19.43;;;13.50;;